Time;durP1;ratioP1;P1;durP2;ratioP2;P2;SDS_P1;SDS_P2;PMS_P1;PMS_P2;Temp;Humidity;BMP_temperature;BMP_pressure;BME280_temperature;BME280_humidity;BME280_pressure;Samples;Min_cycle;Max_cycle;Signal;HPM_P1;HPM_P2
2023/08/11 00:01:08;;;;;;;8.90;2.70;;;;;;;16.24;100.00;97905.63;5025397;28;20025;-74
2023/08/11 00:03:34;;;;;;;5.20;2.40;;;;;;;16.19;100.00;97907.81;5035873;28;20507;-74
2023/08/11 00:05:59;;;;;;;4.15;2.75;;;;;;;16.21;100.00;97909.41;5046116;28;20026;-74
2023/08/11 00:08:25;;;;;;;9.32;2.67;;;;;;;16.12;100.00;97904.72;5043291;28;20074;-74
2023/08/11 00:10:52;;;;;;;6.13;2.65;;;;;;;16.11;100.00;97915.66;5041818;28;20021;-73
2023/08/11 00:13:17;;;;;;;6.70;2.80;;;;;;;16.03;100.00;97910.84;5026808;28;20029;-74
2023/08/11 00:15:43;;;;;;;8.50;3.60;;;;;;;15.98;100.00;97926.53;5033489;28;20078;-74
2023/08/11 00:18:09;;;;;;;6.03;3.00;;;;;;;15.95;100.00;97925.91;5037750;28;20030;-74
2023/08/11 00:20:35;;;;;;;3.22;2.22;;;;;;;15.96;100.00;97933.91;5027408;28;20024;-74
2023/08/11 00:23:00;;;;;;;7.95;2.92;;;;;;;15.89;100.00;97926.41;5029578;28;20089;-74
2023/08/11 00:25:26;;;;;;;9.40;2.97;;;;;;;15.80;100.00;97927.97;5042717;28;20060;-74
2023/08/11 00:27:51;;;;;;;4.05;2.38;;;;;;;15.78;100.00;97931.78;5032302;28;20471;-75
2023/08/11 00:30:18;;;;;;;5.80;2.85;;;;;;;15.74;100.00;97923.03;5019275;28;20580;-74
2023/08/11 00:32:45;;;;;;;9.70;3.30;;;;;;;15.72;100.00;97923.16;5019869;28;20033;-74
2023/08/11 00:35:11;;;;;;;11.00;2.65;;;;;;;15.69;100.00;97922.53;5031455;28;20116;-73
2023/08/11 00:37:36;;;;;;;6.57;3.10;;;;;;;15.59;100.00;97922.38;5036541;28;20120;-74
2023/08/11 00:40:04;;;;;;;5.32;3.13;;;;;;;15.61;100.00;97923.13;5021229;28;20037;-74
2023/08/11 00:42:29;;;;;;;9.52;2.92;;;;;;;15.54;100.00;97913.78;5042864;28;20013;-74
2023/08/11 00:44:58;;;;;;;7.05;3.08;;;;;;;15.56;100.00;97910.97;5020564;28;20074;-74
2023/08/11 00:47:23;;;;;;;6.32;3.30;;;;;;;15.52;100.00;97909.47;5041372;28;20028;-74
2023/08/11 00:49:49;;;;;;;3.70;3.20;;;;;;;15.51;100.00;97921.22;5032441;28;20029;-74
2023/08/11 00:52:15;;;;;;;5.93;3.10;;;;;;;15.48;100.00;97911.53;5024000;28;20431;-74
2023/08/11 00:54:41;;;;;;;7.15;3.28;;;;;;;15.40;100.00;97915.75;5064125;27;20040;-74
2023/08/11 00:57:06;;;;;;;12.35;2.75;;;;;;;15.38;100.00;97923.13;5022335;28;20029;-74
2023/08/11 00:59:32;;;;;;;4.60;2.88;;;;;;;15.31;100.00;97922.72;5040665;28;20033;-74
2023/08/11 01:01:58;;;;;;;13.88;3.88;;;;;;;15.29;100.00;97927.34;5038957;28;20034;-74
2023/08/11 01:04:23;;;;;;;7.38;3.00;;;;;;;15.25;100.00;97915.09;5051683;28;20029;-75
2023/08/11 01:07:05;;;;;;;9.25;3.38;;;;;;;15.25;100.00;97928.56;5025359;28;20041;-75
2023/08/11 01:09:43;;;;;;;9.47;3.40;;;;;;;15.26;100.00;97932.97;5039643;28;20063;-75
2023/08/11 01:12:38;;;;;;;4.55;2.95;;;;;;;15.19;100.00;97923.63;5040386;28;20057;-75
2023/08/11 01:15:22;;;;;;;4.50;2.95;;;;;;;15.21;100.00;97924.38;5030656;28;20078;-74
2023/08/11 01:17:49;;;;;;;8.23;3.35;;;;;;;15.11;100.00;97916.09;5039372;28;20029;-74
2023/08/11 01:20:16;;;;;;;8.45;5.18;;;;;;;15.09;100.00;97927.97;5024525;28;20029;-74
2023/08/11 01:22:45;;;;;;;6.38;3.78;;;;;;;15.07;100.00;97920.00;5025348;28;20404;-75
2023/08/11 01:25:11;;;;;;;11.02;3.78;;;;;;;15.08;100.00;97927.09;5028100;28;20489;-75
2023/08/11 01:27:52;;;;;;;4.65;3.00;;;;;;;15.11;100.00;97931.41;5042568;28;20403;-75
2023/08/11 01:30:18;;;;;;;7.65;3.60;;;;;;;15.02;100.00;97937.47;5029487;28;20381;-75
2023/08/11 01:32:44;;;;;;;7.82;3.60;;;;;;;14.90;100.00;97933.84;5029775;28;20151;-74
2023/08/11 01:35:10;;;;;;;9.45;3.60;;;;;;;14.99;100.00;97943.09;5036527;28;20044;-74
2023/08/11 01:37:36;;;;;;;6.90;3.67;;;;;;;14.93;100.00;97938.16;5020046;28;20029;-75
2023/08/11 01:40:14;;;;;;;11.00;3.50;;;;;;;15.04;100.00;97943.63;5035666;28;20037;-75
2023/08/11 01:42:44;;;;;;;13.13;3.35;;;;;;;15.07;100.00;97946.94;5040044;28;20032;-75
2023/08/11 01:45:12;;;;;;;4.43;3.40;;;;;;;14.98;100.00;97938.69;5032581;28;20032;-75
2023/08/11 01:47:40;;;;;;;6.88;3.53;;;;;;;14.88;100.00;97946.59;5039815;28;20028;-75
2023/08/11 01:50:07;;;;;;;8.57;3.53;;;;;;;14.88;100.00;97945.72;5038622;28;20060;-74
2023/08/11 01:52:39;;;;;;;7.15;3.78;;;;;;;14.86;100.00;97936.91;5038263;28;20457;-74
2023/08/11 01:55:09;;;;;;;4.38;3.60;;;;;;;14.87;100.00;97939.47;5037660;28;20542;-74
2023/08/11 01:57:37;;;;;;;5.15;3.33;;;;;;;14.86;100.00;97947.69;5039618;28;20017;-74
2023/08/11 02:00:24;;;;;;;8.77;3.92;;;;;;;14.83;100.00;97942.47;5030869;28;20115;-74
2023/08/11 02:02:49;;;;;;;14.98;4.28;;;;;;;14.81;100.00;97941.75;5040866;28;20507;-74
2023/08/11 02:05:17;;;;;;;8.18;3.67;;;;;;;14.85;100.00;97945.94;5045618;28;20028;-74
2023/08/11 02:07:44;;;;;;;14.35;4.30;;;;;;;14.87;100.00;97949.38;5018661;28;20090;-74
2023/08/11 02:10:11;;;;;;;5.45;4.05;;;;;;;14.87;100.00;97941.28;5022931;28;20089;-74
2023/08/11 02:12:38;;;;;;;5.82;3.92;;;;;;;14.77;100.00;97932.16;5019379;28;20080;-74
2023/08/11 02:15:07;;;;;;;7.97;4.10;;;;;;;14.77;100.00;97943.78;5026162;28;20526;-74
2023/08/11 02:17:33;;;;;;;14.43;4.20;;;;;;;14.68;100.00;97944.47;5012332;28;20057;-74
2023/08/11 02:20:00;;;;;;;15.40;4.00;;;;;;;14.64;100.00;97943.81;5042012;28;20044;-74
2023/08/11 02:22:26;;;;;;;13.68;3.83;;;;;;;14.66;100.00;97946.41;5039403;28;20036;-74
2023/08/11 02:24:51;;;;;;;10.55;4.22;;;;;;;14.63;100.00;97954.72;5037763;28;20484;-74
2023/08/11 02:27:17;;;;;;;11.77;4.03;;;;;;;14.53;100.00;97949.13;5045706;28;20122;-73
2023/08/11 02:29:43;;;;;;;13.30;4.32;;;;;;;14.45;100.00;97954.19;5034222;28;20530;-74
2023/08/11 02:32:08;;;;;;;6.72;4.10;;;;;;;14.41;100.00;97949.13;5051841;27;20033;-74
2023/08/11 02:34:34;;;;;;;9.80;4.35;;;;;;;14.35;100.00;97947.72;5027383;28;20112;-75
2023/08/11 02:37:00;;;;;;;14.60;4.43;;;;;;;14.34;100.00;97947.81;5041315;28;20029;-75
2023/08/11 02:39:26;;;;;;;26.13;4.90;;;;;;;14.25;100.00;97952.00;5037329;28;20052;-75
2023/08/11 02:41:52;;;;;;;10.80;4.55;;;;;;;14.33;100.00;97955.06;5032991;28;20034;-75
2023/08/11 02:44:17;;;;;;;9.95;4.47;;;;;;;14.43;100.00;97953.41;5010489;28;20053;-75
2023/08/11 02:46:43;;;;;;;12.50;4.75;;;;;;;14.41;100.00;97957.19;5031494;28;20501;-75
2023/08/11 02:49:08;;;;;;;13.43;4.18;;;;;;;14.34;100.00;97951.38;5041251;28;20471;-74
2023/08/11 02:51:34;;;;;;;15.75;4.72;;;;;;;14.29;100.00;97958.91;5020138;28;20029;-74
2023/08/11 02:54:00;;;;;;;10.43;4.57;;;;;;;14.29;100.00;97956.22;5033975;28;20032;-75
2023/08/11 02:56:26;;;;;;;10.05;5.32;;;;;;;14.28;100.00;97967.94;5010817;28;20025;-75
2023/08/11 02:58:56;;;;;;;9.48;5.05;;;;;;;14.27;100.00;97954.59;5028931;28;20472;-75
2023/08/11 03:01:22;;;;;;;8.07;3.75;;;;;;;14.27;100.00;97957.28;5046752;28;20029;-74
2023/08/11 03:03:48;;;;;;;14.57;4.03;;;;;;;14.14;100.00;97959.97;5042267;28;20024;-75
2023/08/11 03:06:14;;;;;;;6.38;4.10;;;;;;;14.21;100.00;97955.03;5034989;28;20096;-75
2023/08/11 03:08:39;;;;;;;6.72;4.55;;;;;;;14.27;100.00;97955.47;5046387;28;20029;-74
2023/08/11 03:11:05;;;;;;;13.38;5.22;;;;;;;14.30;100.00;97949.00;5039915;28;20029;-75
2023/08/11 03:13:30;;;;;;;11.88;4.75;;;;;;;14.35;100.00;97950.44;5046280;28;20033;-74
2023/08/11 03:15:56;;;;;;;11.77;5.05;;;;;;;14.34;100.00;97964.84;5032934;28;20037;-75
2023/08/11 03:18:21;;;;;;;8.63;5.60;;;;;;;14.26;100.00;97964.50;5026496;28;20032;-74
2023/08/11 03:20:47;;;;;;;12.73;6.10;;;;;;;14.27;100.00;97970.75;5027946;28;20415;-75
2023/08/11 03:23:13;;;;;;;11.88;5.15;;;;;;;14.26;100.00;97969.88;5025616;28;20067;-74
2023/08/11 03:25:39;;;;;;;16.13;5.95;;;;;;;14.22;100.00;97973.75;5036383;28;20044;-74
2023/08/11 03:28:05;;;;;;;7.93;5.30;;;;;;;14.23;100.00;97975.47;5046187;28;20454;-75
2023/08/11 03:30:30;;;;;;;15.63;6.22;;;;;;;14.24;100.00;97985.28;5011579;28;20045;-74
2023/08/11 03:32:56;;;;;;;34.33;6.78;;;;;;;14.24;100.00;97990.66;5038170;28;20037;-74
2023/08/11 03:35:22;;;;;;;19.58;5.40;;;;;;;14.20;100.00;97989.16;5039186;28;20033;-74
2023/08/11 03:37:47;;;;;;;20.05;5.80;;;;;;;14.10;100.00;97986.22;5027572;28;20395;-74
2023/08/11 03:40:13;;;;;;;13.48;5.05;;;;;;;14.18;100.00;97987.53;5040481;28;20388;-74
2023/08/11 03:42:41;;;;;;;41.55;7.38;;;;;;;14.12;100.00;97986.97;5024514;28;20453;-74
2023/08/11 03:45:07;;;;;;;17.23;4.80;;;;;;;14.06;100.00;97979.31;5030876;28;20021;-75
2023/08/11 03:47:32;;;;;;;12.00;4.00;;;;;;;13.95;100.00;97983.72;5037909;28;20041;-74
2023/08/11 03:49:58;;;;;;;11.98;3.92;;;;;;;13.88;100.00;97988.66;5019175;28;20033;-74
2023/08/11 03:52:24;;;;;;;19.60;5.43;;;;;;;13.90;100.00;97984.06;5017679;28;20416;-74
2023/08/11 03:54:50;;;;;;;7.15;4.00;;;;;;;13.83;100.00;97987.25;5042413;28;20042;-75
2023/08/11 03:57:16;;;;;;;19.50;4.22;;;;;;;13.84;100.00;97987.13;5031631;28;20432;-74
2023/08/11 03:59:42;;;;;;;84.22;5.43;;;;;;;13.64;100.00;97986.75;5035926;28;20123;-74
2023/08/11 04:02:08;;;;;;;22.20;5.07;;;;;;;13.67;100.00;97995.50;5023717;28;20101;-74
2023/08/11 04:04:33;;;;;;;41.15;5.47;;;;;;;13.72;100.00;98004.09;5025129;28;20025;-75
2023/08/11 04:06:59;;;;;;;10.15;5.60;;;;;;;13.67;100.00;97997.31;5034686;28;20034;-75
2023/08/11 04:09:25;;;;;;;6.43;4.57;;;;;;;13.81;100.00;98002.63;5034882;28;20113;-75
2023/08/11 04:11:50;;;;;;;8.55;4.93;;;;;;;13.92;100.00;98002.75;5034336;28;20032;-74
2023/08/11 04:14:16;;;;;;;5.93;4.70;;;;;;;13.98;100.00;98003.22;5034262;28;20029;-74
2023/08/11 04:16:43;;;;;;;7.65;4.68;;;;;;;14.07;100.00;97999.88;5021921;28;20043;-74
2023/08/11 04:19:09;;;;;;;12.65;4.97;;;;;;;14.28;100.00;98010.97;5045590;28;20401;-75
2023/08/11 04:21:35;;;;;;;16.00;4.68;;;;;;;14.30;100.00;98009.06;5039486;28;20040;-75
2023/08/11 04:24:02;;;;;;;10.70;5.35;;;;;;;14.39;100.00;98004.91;5043489;28;20512;-75
2023/08/11 04:26:27;;;;;;;11.48;4.55;;;;;;;14.47;100.00;98000.69;5037418;28;20025;-75
2023/08/11 04:28:53;;;;;;;17.77;6.05;;;;;;;14.74;100.00;98002.38;5037017;28;20037;-75
2023/08/11 04:31:18;;;;;;;9.77;4.95;;;;;;;14.60;100.00;98001.56;5012657;28;20469;-75
2023/08/11 04:33:44;;;;;;;17.65;5.82;;;;;;;14.61;100.00;98005.97;5045377;28;20037;-75
2023/08/11 04:36:10;;;;;;;21.63;5.53;;;;;;;14.64;100.00;98011.13;5024554;28;20029;-73
2023/08/11 04:38:36;;;;;;;14.65;5.45;;;;;;;14.76;100.00;98017.50;5045122;28;20044;-74
2023/08/11 04:41:01;;;;;;;17.92;4.85;;;;;;;14.72;100.00;98021.38;5036953;28;20025;-74
2023/08/11 04:43:27;;;;;;;12.13;5.07;;;;;;;14.91;100.00;98020.91;5028568;28;20025;-73
2023/08/11 04:45:54;;;;;;;15.20;5.60;;;;;;;14.97;100.00;98024.03;5037630;28;20469;-73
2023/08/11 04:48:19;;;;;;;19.58;5.05;;;;;;;14.88;100.00;98013.06;5008694;28;20381;-74
2023/08/11 04:50:52;;;;;;;10.52;4.97;;;;;;;15.01;100.00;98025.53;5010845;28;20040;-73
2023/08/11 04:53:17;;;;;;;18.17;5.20;;;;;;;15.06;100.00;98028.75;5039399;28;20395;-74
2023/08/11 04:55:43;;;;;;;11.60;4.63;;;;;;;15.27;100.00;98023.63;5048664;28;20017;-74
2023/08/11 04:58:09;;;;;;;7.45;4.38;;;;;;;15.17;100.00;98011.78;5048464;28;20039;-73
2023/08/11 05:00:34;;;;;;;9.77;4.82;;;;;;;15.44;100.00;98017.84;5031454;28;20040;-74
2023/08/11 05:03:00;;;;;;;8.15;4.68;;;;;;;15.75;100.00;98021.84;5050023;28;20086;-73
2023/08/11 05:05:26;;;;;;;5.60;3.75;;;;;;;15.92;100.00;98012.50;5046246;28;20494;-74
2023/08/11 05:07:52;;;;;;;11.15;4.85;;;;;;;16.05;100.00;97997.09;5034088;28;20025;-81
2023/08/11 05:10:17;;;;;;;17.85;4.80;;;;;;;16.16;100.00;97998.00;5032004;28;20389;-83
2023/08/11 05:12:44;;;;;;;6.60;3.90;;;;;;;16.26;100.00;98006.25;5047371;28;20484;-80
2023/08/11 05:15:11;;;;;;;5.82;3.80;;;;;;;16.58;100.00;97999.19;5020022;28;20514;-80
2023/08/11 05:17:36;;;;;;;9.77;4.10;;;;;;;16.28;100.00;97990.78;5031688;28;20108;-82
2023/08/11 05:20:06;;;;;;;9.40;5.75;;;;;;;16.31;100.00;97998.63;5048246;28;20100;-81
2023/08/11 05:22:32;;;;;;;8.27;4.63;;;;;;;16.43;100.00;98005.78;5016138;28;20029;-81
2023/08/11 05:24:57;;;;;;;14.63;5.38;;;;;;;16.54;100.00;98000.44;5028630;28;20082;-81
2023/08/11 05:27:23;;;;;;;21.13;6.35;;;;;;;16.69;100.00;98001.06;5042999;28;20029;-82
2023/08/11 05:29:49;;;;;;;8.75;4.72;;;;;;;16.72;100.00;97996.28;5025965;28;20488;-81
2023/08/11 05:32:15;;;;;;;12.13;5.05;;;;;;;16.92;100.00;98000.06;5031452;28;20025;-82
2023/08/11 05:34:40;;;;;;;9.13;4.47;;;;;;;17.57;100.00;98001.97;5031452;28;20052;-81
2023/08/11 05:37:06;;;;;;;12.90;4.28;;;;;;;18.79;100.00;97996.00;5041652;28;20488;-83
2023/08/11 05:39:32;;;;;;;7.25;3.35;;;;;;;20.35;100.00;97970.75;5011524;28;20421;-83
2023/08/11 05:41:58;;;;;;;17.20;3.88;;;;;;;21.22;100.00;97971.38;5017738;28;20032;-81
2023/08/11 05:44:24;;;;;;;8.63;3.72;;;;;;;22.69;100.00;97979.03;5028721;28;20052;-81
2023/08/11 05:46:49;;;;;;;7.93;3.25;;;;;;;23.60;100.00;97963.81;5029743;28;20512;-82
2023/08/11 05:49:15;;;;;;;2.90;2.60;;;;;;;23.20;100.00;97954.41;5031406;28;20025;-82
2023/08/11 05:51:40;;;;;;;8.18;3.35;;;;;;;23.03;100.00;97960.81;5028229;28;20037;-81
2023/08/11 05:54:06;;;;;;;15.57;3.90;;;;;;;24.47;100.00;97946.88;5026404;28;20025;-82
2023/08/11 05:56:31;;;;;;;61.35;7.32;;;;;;;25.27;100.00;97952.19;5031257;28;20064;-82
2023/08/11 05:58:57;;;;;;;21.15;4.20;;;;;;;24.56;100.00;97952.16;5048203;28;20040;-82
2023/08/11 06:01:23;;;;;;;8.82;4.15;;;;;;;24.42;100.00;97954.75;5039057;28;20029;-83
2023/08/11 06:03:48;;;;;;;8.23;4.53;;;;;;;23.59;100.00;97973.03;5011369;28;20057;-82
2023/08/11 06:06:14;;;;;;;11.13;3.63;;;;;;;23.69;100.00;97962.81;5011435;28;20040;-82
2023/08/11 06:08:39;;;;;;;45.88;9.82;;;;;;;24.26;100.00;97978.34;5011371;28;20029;-83
2023/08/11 06:11:05;;;;;;;17.80;4.88;;;;;;;24.57;100.00;97967.56;5011161;28;20037;-83
2023/08/11 06:13:31;;;;;;;24.85;4.82;;;;;;;25.38;100.00;97969.28;5011218;28;20124;-83
2023/08/11 06:15:56;;;;;;;11.25;3.78;;;;;;;26.03;96.20;97967.06;5045867;28;20555;-82
2023/08/11 06:18:22;;;;;;;12.88;3.30;;;;;;;26.38;91.38;97970.09;5028297;28;20380;-82
2023/08/11 06:20:47;;;;;;;13.63;4.13;;;;;;;26.22;89.96;97966.63;5014426;28;20090;-82
2023/08/11 06:23:13;;;;;;;10.48;3.78;;;;;;;26.34;91.41;97974.25;5030959;28;20037;-81
2023/08/11 06:25:38;;;;;;;12.82;4.25;;;;;;;26.42;90.51;97980.72;5011391;28;20080;-82
2023/08/11 06:28:04;;;;;;;9.30;4.57;;;;;;;25.59;96.36;97988.75;5011583;28;20033;-83
2023/08/11 06:30:30;;;;;;;6.13;2.83;;;;;;;25.95;95.46;97984.44;5011108;28;20073;-83
2023/08/11 06:32:56;;;;;;;17.40;3.33;;;;;;;26.36;90.73;97979.56;5019802;28;20660;-83
2023/08/11 06:35:22;;;;;;;9.85;3.05;;;;;;;26.49;90.92;97990.75;5031111;28;20436;-83
2023/08/11 06:37:48;;;;;;;12.98;5.65;;;;;;;26.18;90.63;97988.06;5030617;28;20029;-82
2023/08/11 06:40:13;;;;;;;10.05;3.03;;;;;;;25.65;94.80;97997.13;5030917;28;20476;-82
2023/08/11 06:42:39;;;;;;;11.85;3.90;;;;;;;25.73;94.97;97996.19;5031219;28;20021;-82
2023/08/11 06:45:06;;;;;;;22.58;4.00;;;;;;;25.81;95.17;97994.25;5030511;28;20032;-81
2023/08/11 06:47:33;;;;;;;12.55;3.25;;;;;;;25.48;93.51;97991.81;5023825;28;20040;-83
2023/08/11 06:49:58;;;;;;;11.43;2.90;;;;;;;25.79;94.31;97996.34;5028426;28;20025;-82
2023/08/11 06:52:26;;;;;;;7.63;3.58;;;;;;;26.06;93.46;97989.50;5010454;28;20036;-82
2023/08/11 06:54:51;;;;;;;6.07;2.63;;;;;;;26.76;87.18;97989.34;5010722;28;20040;-82
2023/08/11 06:57:20;;;;;;;4.15;2.78;;;;;;;27.60;83.51;97979.88;5027146;28;20404;-82
2023/08/11 06:59:47;;;;;;;16.58;3.85;;;;;;;28.51;74.45;97964.44;5010803;28;20469;-82
2023/08/11 07:02:12;;;;;;;5.60;2.70;;;;;;;29.19;72.06;97967.56;5020162;28;20173;-83
2023/08/11 07:04:39;;;;;;;5.70;2.40;;;;;;;30.03;63.86;97955.28;5010738;28;20109;-83
2023/08/11 07:07:05;;;;;;;5.57;2.58;;;;;;;30.90;59.33;97952.47;5029854;28;20153;-83
2023/08/11 07:09:31;;;;;;;28.83;4.38;;;;;;;30.83;58.21;97957.13;5030294;28;20036;-82
2023/08/11 07:11:57;;;;;;;6.57;2.42;;;;;;;31.59;55.11;97955.59;5046769;28;20522;-82
2023/08/11 07:14:22;;;;;;;4.60;2.47;;;;;;;31.05;56.43;97955.88;5029503;28;20040;-82
2023/08/11 07:16:48;;;;;;;10.23;3.50;;;;;;;29.85;60.76;97964.16;5030454;28;20490;-82
2023/08/11 07:19:13;;;;;;;9.82;4.78;;;;;;;28.64;68.01;97966.44;5012453;28;20037;-82
2023/08/11 07:21:39;;;;;;;9.90;4.75;;;;;;;30.13;60.62;97964.03;5011097;28;20025;-83
2023/08/11 07:24:05;;;;;;;7.18;2.88;;;;;;;30.15;58.86;97958.31;5032847;28;20029;-84
2023/08/11 07:26:30;;;;;;;8.35;2.90;;;;;;;30.29;59.58;97963.66;5034807;28;20032;-83
2023/08/11 07:28:56;;;;;;;6.90;4.55;;;;;;;31.58;53.69;97959.41;5010954;28;20511;-82
2023/08/11 07:31:21;;;;;;;7.07;2.13;;;;;;;32.72;47.44;97950.13;5010472;28;21952;-82
2023/08/11 07:33:48;;;;;;;5.53;2.03;;;;;;;33.04;45.74;97950.06;5022068;28;20041;-83
2023/08/11 07:36:13;;;;;;;4.80;2.60;;;;;;;31.96;46.37;97945.66;5027652;28;20030;-82
2023/08/11 07:38:39;;;;;;;3.85;2.40;;;;;;;32.19;46.22;97946.81;5032347;28;20043;-83
2023/08/11 07:41:05;;;;;;;3.10;2.25;;;;;;;31.73;46.52;97953.63;5029942;28;20096;-83
2023/08/11 07:43:31;;;;;;;7.50;2.80;;;;;;;29.98;52.61;97960.59;5013662;28;20057;-82
2023/08/11 07:45:56;;;;;;;10.80;2.40;;;;;;;30.33;53.64;97964.91;5046485;28;20461;-82
2023/08/11 07:48:22;;;;;;;6.35;2.25;;;;;;;30.79;50.88;97965.03;5014016;28;20029;-82
2023/08/11 07:50:47;;;;;;;3.25;2.17;;;;;;;32.55;46.14;97946.16;5026195;28;20045;-82
2023/08/11 07:53:13;;;;;;;23.20;3.00;;;;;;;32.97;45.14;97949.25;5026463;28;20021;-83
2023/08/11 07:55:40;;;;;;;5.53;2.33;;;;;;;29.78;51.07;97954.94;5022462;28;20492;-82
2023/08/11 07:58:06;;;;;;;7.03;2.25;;;;;;;30.50;50.53;97954.38;5027565;28;20024;-82
2023/08/11 08:00:32;;;;;;;2.70;2.20;;;;;;;31.89;47.84;97950.34;5017982;28;20029;-83
2023/08/11 08:02:57;;;;;;;5.60;2.00;;;;;;;31.85;45.19;97947.19;5030718;28;20125;-82
2023/08/11 08:05:23;;;;;;;3.42;2.33;;;;;;;32.67;45.04;97936.06;5037801;28;20108;-82
2023/08/11 08:07:49;;;;;;;2.78;1.90;;;;;;;33.71;43.06;97927.81;5029555;28;20029;-83
2023/08/11 08:10:15;;;;;;;3.17;2.10;;;;;;;33.25;41.61;97936.63;5012526;28;20017;-82
2023/08/11 08:12:43;;;;;;;3.22;2.05;;;;;;;32.40;44.36;97940.06;5009954;28;20030;-83
2023/08/11 08:15:10;;;;;;;6.45;2.33;;;;;;;32.95;44.37;97934.78;5017767;28;20424;-83
2023/08/11 08:17:36;;;;;;;16.20;3.13;;;;;;;32.55;44.29;97937.81;5009581;28;20090;-82
2023/08/11 08:20:04;;;;;;;4.65;2.35;;;;;;;31.75;47.44;97949.56;5026508;28;20022;-82
2023/08/11 08:22:32;;;;;;;14.35;2.53;;;;;;;33.56;43.69;97932.84;5012028;28;20032;-82
2023/08/11 08:24:58;;;;;;;7.75;4.40;;;;;;;33.53;42.87;97938.06;5031833;28;20029;-81
2023/08/11 08:27:24;;;;;;;7.85;3.13;;;;;;;30.20;49.81;97939.19;5031041;28;20021;-81
2023/08/11 08:29:53;;;;;;;10.02;2.90;;;;;;;31.93;48.40;97938.59;5032419;28;20045;-81
2023/08/11 08:32:22;;;;;;;7.70;2.72;;;;;;;32.77;44.62;97937.47;5025597;28;20033;-82
2023/08/11 08:34:48;;;;;;;3.28;2.15;;;;;;;32.32;45.44;97931.19;5013042;28;20090;-81
2023/08/11 08:37:19;;;;;;;24.73;2.72;;;;;;;33.13;44.65;97937.63;5013411;28;20022;-82
2023/08/11 08:39:46;;;;;;;3.72;2.15;;;;;;;34.18;41.92;97928.06;5013290;28;20394;-82
2023/08/11 08:42:13;;;;;;;9.10;2.55;;;;;;;32.96;42.66;97914.28;5042221;28;20530;-82
2023/08/11 08:44:39;;;;;;;9.25;3.13;;;;;;;32.80;44.17;97925.94;5040615;28;20037;-82
2023/08/11 08:47:05;;;;;;;3.85;2.15;;;;;;;31.98;45.13;97926.88;5012826;28;20053;-81
2023/08/11 08:49:31;;;;;;;8.77;2.90;;;;;;;30.18;49.94;97933.88;5030754;28;20082;-81
2023/08/11 08:51:57;;;;;;;14.73;3.40;;;;;;;29.00;55.94;97938.81;5048941;28;20033;-81
2023/08/11 08:54:23;;;;;;;6.90;3.00;;;;;;;27.98;60.25;97949.25;5032218;28;20021;-80
2023/08/11 08:56:51;;;;;;;6.70;2.90;;;;;;;27.54;65.82;97953.13;5023186;28;20517;-81
2023/08/11 08:59:16;;;;;;;8.45;2.70;;;;;;;28.07;63.61;97957.41;5012468;28;20037;-81
2023/08/11 09:01:42;;;;;;;8.38;2.30;;;;;;;29.95;53.84;97944.44;5028782;28;20025;-82
2023/08/11 09:04:08;;;;;;;2.53;2.17;;;;;;;32.21;46.92;97932.72;5032644;28;20498;-82
2023/08/11 09:06:34;;;;;;;16.25;2.45;;;;;;;33.61;43.49;97924.75;5048793;28;20028;-82
2023/08/11 09:09:00;;;;;;;10.07;2.58;;;;;;;33.50;42.19;97910.75;5043511;28;20027;-82
2023/08/11 09:11:29;;;;;;;18.48;3.20;;;;;;;34.70;40.53;97910.59;5015239;28;20025;-83
2023/08/11 09:14:01;;;;;;;8.35;2.50;;;;;;;32.93;43.03;97914.72;5021982;28;20060;-82
2023/08/11 09:16:27;;;;;;;9.13;2.50;;;;;;;33.73;42.35;97903.44;5026410;28;20022;-82
2023/08/11 09:18:52;;;;;;;4.43;2.47;;;;;;;35.29;38.01;97905.94;5048718;28;20023;-81
2023/08/11 09:21:22;;;;;;;5.18;2.53;;;;;;;35.33;37.64;97901.59;5044405;28;20108;-81
2023/08/11 09:23:48;;;;;;;7.45;2.80;;;;;;;35.06;39.11;97900.38;5011989;28;20026;-81
2023/08/11 09:26:13;;;;;;;5.85;3.55;;;;;;;37.11;36.01;97890.91;5012397;28;20026;-81
2023/08/11 09:28:39;;;;;;;4.72;2.50;;;;;;;37.82;34.90;97884.38;5027082;28;20112;-81
2023/08/11 09:31:06;;;;;;;4.40;2.15;;;;;;;37.46;34.41;97887.81;5048186;28;20028;-80
2023/08/11 09:33:34;;;;;;;3.78;2.22;;;;;;;37.78;33.10;97883.22;5031369;28;20021;-82
2023/08/11 09:35:59;;;;;;;2.30;2.10;;;;;;;37.52;34.45;97878.41;5020746;28;20112;-82
2023/08/11 09:38:25;;;;;;;8.20;2.42;;;;;;;37.46;34.08;97879.44;5034091;28;20076;-81
2023/08/11 09:40:51;;;;;;;6.82;2.50;;;;;;;38.52;33.33;97883.53;5043319;28;20508;-82
2023/08/11 09:43:17;;;;;;;4.82;2.30;;;;;;;38.38;32.92;97882.28;5019170;28;20037;-82
2023/08/11 09:45:42;;;;;;;5.43;2.20;;;;;;;37.07;34.41;97874.94;5048086;28;20029;-82
2023/08/11 09:48:08;;;;;;;7.90;2.63;;;;;;;35.71;36.48;97874.06;5051665;28;20021;-81
2023/08/11 09:50:35;;;;;;;9.30;2.58;;;;;;;37.57;33.77;97872.03;5026244;28;20049;-82
2023/08/11 09:53:04;;;;;;;5.18;2.00;;;;;;;36.62;35.41;97861.91;5025151;28;20059;-82
2023/08/11 09:55:31;;;;;;;27.25;3.10;;;;;;;37.70;34.34;97871.66;5016884;28;20029;-82
2023/08/11 09:57:59;;;;;;;4.25;2.63;;;;;;;37.54;32.55;97855.78;5039453;28;20033;-82
2023/08/11 10:00:25;;;;;;;4.45;2.60;;;;;;;37.61;33.64;97862.03;5045133;28;20032;-81
2023/08/11 10:03:01;;;;;;;4.15;2.03;;;;;;;38.38;32.73;97859.91;5049738;28;20028;-81
2023/08/11 10:05:29;;;;;;;6.35;2.50;;;;;;;38.07;32.93;97853.13;5013799;28;20024;-81
2023/08/11 10:07:58;;;;;;;5.43;2.72;;;;;;;37.46;33.97;97857.09;5045499;28;20410;-81
2023/08/11 10:10:23;;;;;;;3.10;2.40;;;;;;;34.56;37.60;97866.56;5020097;28;20116;-81
2023/08/11 10:13:09;;;;;;;4.47;2.42;;;;;;;36.13;36.38;97854.28;5028579;28;20473;-81
2023/08/11 10:15:34;;;;;;;8.65;3.10;;;;;;;37.65;34.24;97858.47;5043452;28;20033;-82
2023/08/11 10:18:04;;;;;;;6.28;2.50;;;;;;;36.59;34.25;97845.69;5024074;28;20035;-82
2023/08/11 10:20:30;;;;;;;7.80;3.08;;;;;;;36.31;35.49;97849.34;5027923;28;20108;-81
2023/08/11 10:22:57;;;;;;;5.97;2.30;;;;;;;38.63;32.42;97850.91;5023684;28;20472;-82
2023/08/11 10:25:23;;;;;;;5.57;2.35;;;;;;;39.38;31.29;97842.22;5015088;28;20033;-82
2023/08/11 10:27:49;;;;;;;4.25;1.85;;;;;;;39.54;30.07;97830.84;5012473;28;20525;-83
2023/08/11 10:30:15;;;;;;;3.33;2.45;;;;;;;39.75;29.93;97825.38;5029046;28;20132;-82
2023/08/11 10:32:40;;;;;;;12.90;2.70;;;;;;;40.06;28.38;97815.91;5012386;28;20089;-82
2023/08/11 10:35:07;;;;;;;4.47;2.15;;;;;;;38.36;30.36;97812.63;5028709;28;20033;-82
2023/08/11 10:37:33;;;;;;;3.80;2.72;;;;;;;39.83;28.61;97805.19;5012915;28;20029;-82
2023/08/11 10:40:04;;;;;;;5.28;2.35;;;;;;;39.61;28.31;97802.56;5045973;28;20114;-82
2023/08/11 10:42:30;;;;;;;5.30;2.17;;;;;;;40.48;27.56;97799.75;5050412;28;20486;-82
2023/08/11 10:45:22;;;;;;;1.83;1.70;;;;;;;40.78;26.93;97801.72;5032873;28;20052;-82
2023/08/11 10:47:52;;;;;;;2.53;1.90;;;;;;;39.95;27.98;97794.59;5044491;28;20029;-82
2023/08/11 10:50:19;;;;;;;3.95;1.88;;;;;;;39.36;28.88;97794.06;5032379;28;20027;-82
2023/08/11 10:53:05;;;;;;;2.20;2.00;;;;;;;37.32;31.28;97797.97;5029271;28;20489;-82
2023/08/11 10:55:34;;;;;;;12.02;2.00;;;;;;;35.57;33.13;97794.69;5043414;28;20037;-82
2023/08/11 10:58:14;;;;;;;4.97;2.15;;;;;;;34.27;35.21;97807.19;5017927;28;20037;-81
2023/08/11 11:00:40;;;;;;;5.03;2.22;;;;;;;33.95;35.33;97814.06;5013934;28;20021;-82
2023/08/11 11:03:06;;;;;;;2.90;2.10;;;;;;;34.26;35.82;97811.91;5014557;28;20021;-82
2023/08/11 11:05:32;;;;;;;2.33;2.10;;;;;;;34.28;36.41;97806.09;5025504;28;20392;-81
2023/08/11 11:07:57;;;;;;;5.53;2.40;;;;;;;34.45;35.13;97801.53;5037215;28;20025;-82
2023/08/11 11:10:23;;;;;;;5.70;2.40;;;;;;;36.04;34.08;97800.88;5049928;28;20033;-82
2023/08/11 11:12:48;;;;;;;4.47;1.92;;;;;;;37.21;31.80;97803.69;5046224;28;20021;-82
2023/08/11 11:15:14;;;;;;;5.55;2.50;;;;;;;36.76;32.79;97803.84;5032015;28;20018;-82
2023/08/11 11:17:40;;;;;;;11.05;2.15;;;;;;;37.27;31.79;97797.91;5039685;28;20020;-82
2023/08/11 11:20:06;;;;;;;4.57;2.10;;;;;;;38.19;31.25;97799.84;5042623;28;20503;-82
2023/08/11 11:22:32;;;;;;;10.52;2.20;;;;;;;39.12;29.95;97792.78;5035636;28;20111;-82
2023/08/11 11:25:02;;;;;;;3.35;2.63;;;;;;;37.81;31.31;97787.69;5026288;28;20519;-82